Home > Products > Valid Products > TAF

000
FTUS45 KCYS 231100
TAFCYS
TAF
KCYS 231120Z 2312/2412 26013G24KT P6SM BKN120
     FM231400 29025G38KT P6SM BKN120
     FM231900 30028G42KT P6SM BKN090
     FM240100 32018KT P6SM SCT090
     FM240300 30012KT P6SM SCT090=



000
FTUS45 KCYS 231100
TAFRWL
TAF
KRWL 231120Z 2312/2412 27015G28KT P6SM VCSH BKN035
      TEMPO 2312/2314 BKN025
     FM231400 27022G35KT P6SM BKN090
     FM231800 28029G44KT P6SM BKN090
     FM240100 30020KT P6SM SCT090
     FM240400 29011KT P6SM SCT090=



000
FTUS45 KCYS 231100
TAFCYS
TAF
KCYS 231120Z 2312/2412 26013G24KT P6SM BKN120
     FM231400 29025G38KT P6SM BKN120
     FM231900 30028G42KT P6SM BKN090
     FM240100 32018KT P6SM SCT090
     FM240300 30012KT P6SM SCT090=



000
FTUS45 KCYS 231100
TAFLAR
TAF
KLAR 231120Z 2312/2412 22009KT P6SM BKN100
     FM231400 26022G35KT P6SM BKN100
     FM231600 28028G41KT P6SM BKN090
     FM240100 30018KT P6SM SCT090
     FM240400 29009KT P6SM SCT090=



000
FTUS45 KCYS 230700 AAB
TAFRWL
TAF AMD
KRWL 230759Z 2308/2406 26020G30KT P6SM BKN100
      TEMPO 2308/2310 VRB20G35KT 4SM -SHSNRA OVC023
     FM231000 27025G35KT P6SM VCSH SCT040 BKN050
     FM231500 25030G40KT P6SM SCT250=



000
FTUS45 KCYS 230600 AAA
TAFRWL
TAF AMD
KRWL 230632Z 2307/2406 18010G20KT P6SM BKN100
      TEMPO 2307/2310 VRB20G35KT 4SM -SHRA OVC035
     FM231000 27025G35KT P6SM VCSH SCT040 BKN050
     FM231500 25030G40KT P6SM SCT250=



000
FTUS45 KCYS 230500
TAFCYS
TAF
KCYS 230520Z 2306/2406 25010KT P6SM BKN250
     FM231200 27017G25KT P6SM BKN250
     FM231500 29025G35KT P6SM SCT080 SCT250=



000
FTUS45 KCYS 230500
TAFRWL
TAF
KRWL 230520Z 2306/2406 18010KT P6SM BKN250
     FM230800 27025G35KT P6SM VCSH SCT040 BKN050
     FM231500 25030G40KT P6SM SCT250=



000
FTUS45 KCYS 230500
TAFCYS
TAF
KCYS 230520Z 2306/2406 25010KT P6SM BKN250
     FM231200 27017G25KT P6SM BKN250
     FM231500 29025G35KT P6SM SCT080 SCT250=



000
FTUS45 KCYS 230500
TAFLAR
TAF
KLAR 230520Z 2306/2406 19012KT P6SM BKN150
     FM231300 21016G24KT P6SM BKN250
     FM231600 28026G36KT P6SM SCT050 SCT250=



000
FTUS45 KCYS 222300
TAFCYS
TAF
KCYS 222320Z 2300/2324 23011KT P6SM VCSH OVC100
     FM230100 18010KT P6SM BKN250
     FM231100 27017G25KT P6SM BKN250
     FM231500 29025G35KT P6SM SCT250=



000
FTUS45 KCYS 222300
TAFCYS
TAF
KCYS 222320Z 2300/2324 23011KT P6SM VCSH OVC100
     FM230100 18010KT P6SM BKN250
     FM231100 27017G25KT P6SM BKN250
     FM231500 29025G35KT P6SM SCT250=



000
FTUS45 KCYS 222300
TAFRWL
TAF
KRWL 222320Z 2300/2324 22023G33KT P6SM SCT100 BKN200
     FM230200 22016G25KT P6SM BKN250
     FM230800 27025G35KT P6SM VCSH SCT040 BKN050
     FM231500 25030G40KT P6SM SCT250=



000
FTUS45 KCYS 222300
TAFLAR
TAF
KLAR 222320Z 2300/2324 19015KT P6SM BKN150
     FM230400 20010KT P6SM BKN250
     FM231200 21016G24KT P6SM BKN250
     FM231500 28026G36KT P6SM SCT250=



000
FTUS45 KCYS 221700
TAFCYS
TAF
KCYS 221738Z 2218/2318 19011G17KT P6SM BKN150
     FM222100 21013G22KT P6SM VCSH OVC150
      TEMPO 2221/2223 -SHRA BKN080
     FM230100 20011KT P6SM BKN250
     FM231500 29016G24KT P6SM SCT250=



000
FTUS45 KCYS 221700
TAFCYS
TAF
KCYS 221738Z 2218/2318 19011G17KT P6SM BKN150
     FM222100 21013G22KT P6SM VCSH OVC150
      TEMPO 2221/2223 -SHRA BKN080
     FM230100 20011KT P6SM BKN250
     FM231500 29016G24KT P6SM SCT250=



000
FTUS45 KCYS 221700
TAFRWL
TAF
KRWL 221738Z 2218/2318 22023G33KT P6SM VCSH SCT100 BKN200
      TEMPO 2218/2221 -SHRA BKN080
     FM230200 22016G25KT P6SM BKN250
     FM230800 27021G28KT P6SM BKN060=



000
FTUS45 KCYS 221700
TAFLAR
TAF
KLAR 221738Z 2218/2318 22022G34KT P6SM VCSH SCT100 BKN200
      TEMPO 2219/2222 -SHRA BKN080
     FM230000 18014KT P6SM BKN100
     FM230600 20010KT P6SM BKN250
     FM231400 28020G32KT P6SM SCT250=



000
FTUS45 KCYS 221100
TAFCYS
TAF
KCYS 221133Z 2212/2312 23007KT P6SM SCT250
     FM221800 22016G26KT P6SM VCTS SCT100CB BKN150
     FM230100 20011KT P6SM SCT250=



000
FTUS45 KCYS 221100
TAFRWL
TAF
KRWL 221133Z 2212/2312 21006KT P6SM SCT250
     FM221600 22023G33KT P6SM VCSH SCT100 BKN200
     FM230200 24016G25KT P6SM SCT250=



000
FTUS45 KCYS 221100
TAFCYS
TAF
KCYS 221133Z 2212/2312 23007KT P6SM SCT250
     FM221800 22016G26KT P6SM VCTS SCT100CB BKN150
     FM230100 20011KT P6SM SCT250=



000
FTUS45 KCYS 221100
TAFLAR
TAF
KLAR 221133Z 2212/2312 19010KT P6SM SKC
     FM221600 21016G26KT P6SM SCT250
     FM221800 22022G34KT P6SM VCSH SCT100 BKN200
     FM230000 18014KT P6SM SCT250=



000
FTUS45 KCYS 220500
TAFLAR
TAF
KLAR 220520Z 2206/2306 17012KT P6SM SKC
     FM221600 21016G26KT P6SM SCT250
     FM221800 22022G34KT P6SM VCSH SCT100 BKN200
     FM230000 18014KT P6SM SCT250=



000
FTUS45 KCYS 220500
TAFRWL
TAF
KRWL 220520Z 2206/2306 21007KT P6SM SCT250
     FM221600 22015G25KT P6SM VCSH SCT100 BKN200
     FM222000 22024G34KT P6SM SCT250
     FM230200 22014KT P6SM SCT250=



000
FTUS45 KCYS 220500
TAFCYS
TAF
KCYS 220520Z 2206/2306 16011KT P6SM SCT250
     FM220900 23009KT P6SM SCT250
     FM221800 22016G26KT P6SM VCTS SCT100CB BKN150
     FM230000 20011KT P6SM SCT250=



000
FTUS45 KCYS 220500
TAFCYS
TAF
KCYS 220520Z 2206/2306 16011KT P6SM SCT250
     FM220900 23009KT P6SM SCT250
     FM221800 22016G26KT P6SM VCTS SCT100CB BKN150
     FM230000 20011KT P6SM SCT250=



000
FTUS45 KCYS 212300
TAFCYS
TAF
KCYS 212333Z 2200/2224 18012G20KT P6SM FEW120
     FM220200 18009KT P6SM SKC
     FM220800 23009KT P6SM SCT250
     FM221700 22016G26KT P6SM VCTS SCT100CB BKN150=



000
FTUS45 KCYS 212300
TAFRWL
TAF
KRWL 212333Z 2200/2224 24011KT P6SM FEW250
     FM220300 21007KT P6SM SCT250
     FM221600 22015G25KT P6SM VCSH SCT100 BKN250
     FM222000 22024G34KT P6SM SCT250=



000
FTUS45 KCYS 212300
TAFCYS
TAF
KCYS 212333Z 2200/2224 18012G20KT P6SM FEW120
     FM220200 18009KT P6SM SKC
     FM220800 23009KT P6SM SCT250
     FM221700 22016G26KT P6SM VCTS SCT100CB BKN150=



000
FTUS45 KCYS 212300
TAFLAR
TAF
KLAR 212333Z 2200/2224 15012KT P6SM OVC100
     FM220200 18012KT P6SM SKC
     FM221600 20016G26KT P6SM SCT250
     FM221800 22022G34KT P6SM VCSH SCT100 BKN200=



000
FTUS45 KCYS 211700 RRA
TAFRWL
TAF
KRWL 211742Z 2118/2218 24011KT P6SM FEW250
     FM220300 21007KT P6SM SCT250
     FM221600 22015G22KT P6SM BKN250=



000
FTUS45 KCYS 211700 RRA
TAFCYS
TAF
KCYS 211742Z 2118/2218 14011KT P6SM SKC
     FM212100 16010G17KT P6SM VCSH SCT070 BKN100
     FM220200 18009KT P6SM SKC
     FM220800 23009KT P6SM SCT250=



000
FTUS45 KCYS 211700 RRA
TAFLAR
TAF
KLAR 211742Z 2118/2218 15006KT P6SM SKC
     FM211900 19013G19KT P6SM SCT070 BKN100
     FM220200 18012KT P6SM SKC
     FM221600 20019G26KT P6SM SCT250=



000
FTUS45 KCYS 211700 RRA
TAFCYS
TAF
KCYS 211742Z 2118/2218 14011KT P6SM SKC
     FM212100 16010G17KT P6SM VCSH SCT070 BKN100
     FM220200 18009KT P6SM SKC
     FM220800 23009KT P6SM SCT250=



000
FTUS45 KCYS 211100
TAFCYS
TAF
KCYS 211135Z 2112/2212 34007KT P6SM SKC
     FM211500 14011KT P6SM SKC
     FM212100 16010G18KT P6SM SCT070 BKN100
     FM220200 18009KT P6SM SKC=



000
FTUS45 KCYS 211100
TAFRWL
TAF
KRWL 211135Z 2112/2212 VRB04KT P6SM SKC
     FM211900 23013KT P6SM SCT100
     FM220300 22007KT P6SM SKC=



000
FTUS45 KCYS 211100
TAFLAR
TAF
KLAR 211135Z 2112/2212 15006KT P6SM SKC
     FM211900 19013G19KT P6SM SCT070 BKN100
     FM220200 18012KT P6SM SKC=



000
FTUS45 KCYS 211100
TAFCYS
TAF
KCYS 211135Z 2112/2212 34007KT P6SM SKC
     FM211500 14011KT P6SM SKC
     FM212100 16010G18KT P6SM SCT070 BKN100
     FM220200 18009KT P6SM SKC=



000
FTUS45 KCYS 210500
TAFLAR
TAF
KLAR 210520Z 2106/2206 VRB05KT P6SM BKN100
     FM211800 19012KT P6SM SKC=



000
FTUS45 KCYS 210500
TAFCYS
TAF
KCYS 210520Z 2106/2206 34008KT P6SM BKN110
     FM211700 17012G20KT P6SM SKC
     FM212100 16010G18KT P6SM SCT070 BKN100=



000
FTUS45 KCYS 210500
TAFRWL
TAF
KRWL 210520Z 2106/2206 24012KT P6SM BKN100
     FM210800 VRB05KT P6SM SCT090
     FM211900 23013KT P6SM SKC=



000
FTUS45 KCYS 210500
TAFCYS
TAF
KCYS 210520Z 2106/2206 34008KT P6SM BKN110
     FM211700 17012G20KT P6SM SKC
     FM212100 16010G18KT P6SM SCT070 BKN100=



000
FTUS45 KCYS 210200 AAA
TAFRWL
TAF AMD
KRWL 210219Z 2102/2124 24010KT P6SM BKN100
     FM210400 VRB05KT P6SM SCT090
     FM211600 23013KT P6SM SKC=



000
FTUS45 KCYS 210100 AAA
TAFLAR
TAF AMD
KLAR 210133Z 2102/2124 25007KT P6SM FEW080
     FM210600 15007KT P6SM SKC
     FM211800 21012KT P6SM SKC=



000
FTUS45 KCYS 210000 AAA
TAFCYS
TAF AMD
KCYS 210000Z 2100/2124 36012KT P6SM FEW070 BKN110
     FM210200 01008KT P6SM FEW080
     FM211500 17012KT P6SM SKC=



000
FTUS45 KCYS 210000 AAA
TAFCYS
TAF AMD
KCYS 210000Z 2100/2124 36012KT P6SM FEW070 BKN110
     FM210200 01008KT P6SM FEW080
     FM211500 17012KT P6SM SKC=



000
FTUS45 KCYS 202300
TAFCYS
TAF
KCYS 202320Z 2100/2124 33013KT P6SM FEW070 BKN110
     FM210200 01008KT P6SM FEW080
     FM211500 17012KT P6SM SKC=



000
FTUS45 KCYS 202300
TAFRWL
TAF
KRWL 202320Z 2100/2124 29012G17KT P6SM SCT090
     FM210200 VRB05KT P6SM FEW090
     FM211600 23013KT P6SM SKC=



000
FTUS45 KCYS 202300
TAFLAR
TAF
KLAR 202320Z 2100/2124 31014KT P6SM BKN080
     FM210200 35007KT P6SM FEW080
     FM210600 15007KT P6SM SKC
     FM211800 21012KT P6SM SKC=



000
FTUS45 KCYS 202300
TAFCYS
TAF
KCYS 202320Z 2100/2124 33013KT P6SM FEW070 BKN110
     FM210200 01008KT P6SM FEW080
     FM211500 17012KT P6SM SKC=



000
FTUS45 KCYS 201700 CCA
TAFLAR
TAF COR
KLAR 201759Z 2018/2118 31013G20KT P6SM SCT070
     FM202000 32014KT P6SM VCSH BKN070
     FM210100 35010KT P6SM SCT080
     FM210400 15007KT P6SM SCT250=



000
FTUS45 KCYS 201700
TAFCYS
TAF
KCYS 201740Z 2018/2118 32015G21KT P6SM FEW080
     FM202100 34013G20KT P6SM VCSH SCT070 BKN120
     FM210100 01010KT P6SM SCT080
     FM211500 17012KT P6SM SKC=



000
FTUS45 KCYS 201700
TAFLAR
TAF
KLAR 201740Z 2018/2118 VRB04KT P6SM SCT070
     FM202000 32013KT P6SM VCSH BKN070
     FM210100 35010KT P6SM SCT080
     FM210400 15007KT P6SM SCT250=



000
FTUS45 KCYS 201700
TAFCYS
TAF
KCYS 201740Z 2018/2118 32015G21KT P6SM FEW080
     FM202100 34013G20KT P6SM VCSH SCT070 BKN120
     FM210100 01010KT P6SM SCT080
     FM211500 17012KT P6SM SKC=



000
FTUS45 KCYS 201700
TAFRWL
TAF
KRWL 201740Z 2018/2118 27016G23KT P6SM BKN250
     FM210100 31008KT P6SM FEW080=



000
FTUS45 KCYS 201600 AAA
TAFLAR
TAF AMD
KLAR 201629Z 2016/2112 24009KT P6SM FEW080
     FM201800 29009KT P6SM SCT080
     FM202000 32010KT P6SM VCSH SCT030 BKN070
     FM210100 31010KT P6SM SCT080=



    US Dept of Commerce
    National Oceanic and Atmospheric Administration
    National Weather Service
    1325 East West Highway
    Silver Spring, MD 20910
    Page Author: NWS Internet Services Team
Disclaimer
Information Quality
Credits
Glossary
Privacy Policy
Freedom of Information Act (FOIA)
About Us
Career Opportunities